CDT,Max TemperatureF,Mean TemperatureF,Min TemperatureF,Max Dew PointF,MeanDew PointF,Min DewpointF,Max Humidity, Mean Humidity, Min Humidity, Max Sea Level PressureIn, Mean Sea Level PressureIn, Min Sea Level PressureIn, Max VisibilityMiles, Mean VisibilityMiles, Min VisibilityMiles, Max Wind SpeedMPH, Mean Wind SpeedMPH, Max Gust SpeedMPH,PrecipitationIn, CloudCover, Events, WindDirDegrees
2013-10-1,88,71,54,61,55,50,83,60,36,29.92,29.86,29.79,10,10,10,16,7,26,0.00,0,,160
2013-10-2,87,75,63,67,64,60,90,71,51,29.94,29.86,29.78,10,9,4,23,13,31,0.00,3,,164
2013-10-3,90,78,65,66,65,61,84,63,41,29.79,29.70,29.60,10,10,10,28,15,38,T,3,Rain,155
2013-10-4,92,71,50,67,56,31,79,50,21,30.02,29.72,29.62,10,10,10,33,21,40,0.03,2,Rain,221
2013-10-5,64,55,46,32,30,29,58,44,29,30.09,30.03,29.96,10,10,10,29,17,36,T,4,,293
2013-10-6,70,57,44,37,31,20,62,39,15,30.08,30.01,29.96,10,10,9,28,14,36,0.00,1,,301
2013-10-7,79,59,38,38,35,31,82,51,19,30.19,30.10,30.04,10,10,10,16,7,22,0.00,0,,205
2013-10-8,82,68,53,48,41,38,60,42,23,30.02,29.96,29.88,10,10,10,29,17,37,0.00,0,,168
2013-10-9,83,70,57,54,49,46,72,50,28,29.96,29.92,29.88,10,10,10,28,17,35,0.00,0,,164
2013-10-10,85,73,61,57,54,52,78,58,37,29.94,29.85,29.72,10,10,10,29,19,36,0.00,0,,159
2013-10-11,83,69,54,58,47,30,78,47,15,29.92,29.74,29.66,10,10,10,24,15,35,0.01,1,Rain,222
2013-10-12,71,58,44,42,36,31,83,53,23,30.27,30.14,29.94,10,10,9,12,5,,0.00,0,,13
2013-10-13,74,55,36,38,35,29,89,55,20,30.36,30.28,30.18,10,9,2,24,10,31,T,1,Rain,118
2013-10-14,66,60,53,61,52,37,87,62,37,30.21,29.96,29.74,10,9,3,32,18,41,0.33,8,Rain-Thunderstorm,162
2013-10-15,61,53,44,45,38,34,83,61,39,30.18,30.08,29.93,10,10,10,28,15,33,0.00,2,,313
2013-10-16,58,48,38,37,34,30,79,58,36,30.18,30.11,30.03,10,10,8,16,9,20,0.00,4,,290
2013-10-17,68,53,37,39,36,33,85,57,29,30.12,30.02,29.95,10,10,9,21,9,24,0.00,0,,288
2013-10-18,42,38,33,36,33,30,96,85,73,30.24,30.17,30.11,10,6,0,20,7,25,0.43,6,Fog-Rain-Snow,295
2013-10-19,68,49,29,41,35,28,92,60,27,30.13,30.01,29.89,10,10,10,20,8,25,0.00,0,,223
2013-10-20,69,54,38,44,38,34,85,59,32,30.01,29.87,29.82,10,10,10,15,7,20,0.00,0,,279
2013-10-21,63,50,37,38,35,31,85,60,34,30.17,30.09,30.01,10,10,10,18,7,24,0.00,1,,276
2013-10-22,69,56,43,42,38,35,82,58,34,30.15,30.03,29.96,10,10,10,28,11,32,0.00,2,,327
2013-10-23,70,51,32,42,37,31,89,61,33,30.21,30.11,30.01,10,10,10,25,7,33,0.00,0,,269
2013-10-24,53,43,32,37,30,23,85,59,33,30.46,30.38,30.23,10,10,10,13,5,17,0.00,2,,17
2013-10-25,60,45,29,38,29,24,85,55,25,30.46,30.33,30.13,10,10,10,21,9,25,0.00,1,,179
2013-10-26,64,48,31,40,32,24,86,55,23,30.24,30.17,30.08,10,10,10,20,7,29,0.00,0,,342
2013-10-27,73,51,28,32,28,24,85,54,23,30.19,30.05,29.93,10,10,10,21,9,26,0.00,0,,182
2013-10-28,67,53,39,54,46,31,86,70,53,30.06,30.01,29.92,10,9,5,21,11,25,0.02,5,,144
2013-10-29,68,60,52,64,56,49,93,83,72,30.01,29.94,29.86,10,6,0,26,9,33,0.31,7,Fog-Rain-Thunderstorm,132
2013-10-30,52,51,49,50,48,45,96,88,80,29.97,29.87,29.78,10,4,0,16,8,18,0.05,8,Fog-Rain-Thunderstorm,330
2013-10-31,65,55,45,45,41,34,92,64,36,29.75,29.69,29.61,10,10,9,26,10,32,0.01,4,Rain,304